CYJM weather

Fort St James Airport
Fort St. James, British Columbia, Canada

Public forecast

Using degrees Celsius for public forecast. Weather courtesy of forecast.io.

METAR (pilot weather report)

Closest report is Prince George Airport, 63.5 nm (117.6 km) ESE. Retrieved 2019/08/25 11:00 UTC (8 minutes ago):

CYXS 251100Z AUTO 21006KT 9SM OVC065 12/07 A2995 RMK SLP151 DENSITY ALT 2300FT

TAF (pilot weather forecast)

Closest forecast is Prince George Airport, 63.5 nm (117.6 km) ESE. Retrieved 2019/08/25 07:42 UTC (3 hours ago):

TAF CYXS 250638Z 2507/2519 VRB03KT P6SM BKN090 TEMPO 2507/2513 5SM -SHRA BR BKN020 BECMG 2507/2509 20006KT FM251300 20006KT P6SM BKN040 BECMG 2513/2515 25012KT RMK FCST BASED ON AUTO OBS. NXT FCST BY 251300Z